Yukon, Oklahoma
Current Conditions -  °F | °C
As of 4:15 AM on Friday 24 Oct 2014 (Local Time) from KRCE Reporting Station
NA  
Wind Chill: 59°   Ceiling: NA
Heat Index: 59°   Visibility: NA
Dew Point: 57°   Wind: 9mph
Humidity: 94%   Direction: 180°S
Pressure: 30.09"   Gusts: NA
Location:  35.51°N, 97.74°W
Report Text: KRCE 240915Z AUTO 18008KT 15/14 A3009 RMK AO2
Loading
Personal Weather Stations






























Interactive Weather Map
Tropical Storm Tracking
New forecast layout! Learn more

10-Day Weather Forecast

Advertisements
Track Severe Weather on mobile